^^
WestSenecaWeather Station Historical Data
 
Daily Summary for March 28, 2017 Units:  English    Metric   Both
Daily Weekly Monthly Yearly Custom
  Current: High: Low: Average:
Temperature: 44.1 °F 46.8 °F 42.3 °F 44.1 °F
Dew Point: 43.3 °F 44.9 °F 41.2 °F 42.9 °F
Humidity: 97% 97% 93% 95%
Wind Speed: 0.0mph 3.5mph 0.0mph 0.1mph
Wind Gust: 0.0mph 3.5mph - -
WindCalm - - NNW
Pressure: 29.87 in 29.89 in 29.86 in -
Precipitation: 0.00 in      
Historical Graphs
 
 
Tabular Data for March 28, 2017
Time Temperature Dew Point Pressure Wind Wind Speed Wind Gust Humidity Rainfall Rate (Hourly) solar
00:03 46.8 °F 44.9 °F 29.89 in Calm     93% 0.00 in 0.0 W/m2
00:08 46.6 °F 44.7 °F 29.89 in Calm     93% 0.00 in 0.0 W/m2
00:13 46.5 °F 44.6 °F 29.89 in Calm     93% 0.00 in 0.0 W/m2
00:18 46.4 °F 44.5 °F 29.89 in Calm     93% 0.00 in 0.0 W/m2
00:23 46.3 °F 44.4 °F 29.89 in Calm     93% 0.00 in 0.0 W/m2
00:28 46.2 °F 44.3 °F 29.89 in Calm     93% 0.00 in 0.0 W/m2
00:33 46.1 °F 44.2 °F 29.89 in Calm     93% 0.00 in 0.0 W/m2
00:38 46.1 °F 44.5 °F 29.89 in Calm     94% 0.00 in 0.0 W/m2
00:43 46.0 °F 44.4 °F 29.89 in Calm     94% 0.00 in 0.0 W/m2
00:48 45.9 °F 44.3 °F 29.89 in Calm     94% 0.00 in 0.0 W/m2
00:54 45.7 °F 44.1 °F 29.89 in Calm     94% 0.00 in 0.0 W/m2
00:59 45.6 °F 44.0 °F 29.89 in Calm     94% 0.00 in 0.0 W/m2
01:04 45.5 °F 43.9 °F 29.89 in Calm     94% 0.00 in 0.0 W/m2
01:09 45.5 °F 43.9 °F 29.89 in Calm     94% 0.00 in 0.0 W/m2
01:13 45.3 °F 43.7 °F 29.89 in Calm     94% 0.00 in 0.0 W/m2
01:18 45.1 °F 43.5 °F 29.88 in Calm     94% 0.00 in 0.0 W/m2
01:29 45.0 °F 43.7 °F 29.89 in Calm     95% 0.00 in 0.0 W/m2
01:34 45.0 °F 43.7 °F 29.89 in Calm     95% 0.00 in 0.0 W/m2
01:39 44.8 °F 43.5 °F 29.89 in Calm     95% 0.00 in 0.0 W/m2
01:44 44.7 °F 43.4 °F 29.89 in Calm     95% 0.00 in 0.0 W/m2
01:49 44.6 °F 43.3 °F 29.89 in Calm     95% 0.00 in 0.0 W/m2
01:54 44.5 °F 43.2 °F 29.89 in Calm     95% 0.00 in 0.0 W/m2
01:59 44.4 °F 43.1 °F 29.89 in Calm     95% 0.00 in 0.0 W/m2
02:03 44.3 °F 43.0 °F 29.88 in Calm     95% 0.00 in 0.0 W/m2
02:09 44.2 °F 42.9 °F 29.88 in Calm     95% 0.00 in 0.0 W/m2
02:14 44.0 °F 42.7 °F 29.88 in Calm     95% 0.00 in 0.0 W/m2
02:19 43.8 °F 42.5 °F 29.88 in Calm     95% 0.00 in 0.0 W/m2
02:24 43.8 °F 42.5 °F 29.88 in Calm     95% 0.00 in 0.0 W/m2
02:29 43.8 °F 42.5 °F 29.88 in Calm     95% 0.00 in 0.0 W/m2
02:34 43.6 °F 42.3 °F 29.87 in Calm     95% 0.00 in 0.0 W/m2
02:39 43.4 °F 42.1 °F 29.87 in Calm     95% 0.00 in 0.0 W/m2
02:44 43.4 °F 42.1 °F 29.87 in Calm     95% 0.00 in 0.0 W/m2
02:49 43.3 °F 42.0 °F 29.87 in Calm     95% 0.00 in 0.0 W/m2
02:54 43.4 °F 42.3 °F 29.87 in Calm     96% 0.00 in 0.0 W/m2
02:59 43.4 °F 42.3 °F 29.87 in Calm     96% 0.00 in 0.0 W/m2
03:04 43.6 °F 42.5 °F 29.86 in Calm     96% 0.00 in 0.0 W/m2
03:09 43.6 °F 42.5 °F 29.87 in Calm     96% 0.00 in 0.0 W/m2
03:14 43.6 °F 42.5 °F 29.86 in Calm     96% 0.00 in 0.0 W/m2
03:19 43.6 °F 42.5 °F 29.86 in Calm     96% 0.00 in 0.0 W/m2
03:24 43.7 °F 42.6 °F 29.86 in Calm     96% 0.00 in 0.0 W/m2
03:29 43.7 °F 42.6 °F 29.87 in Calm     96% 0.00 in 0.0 W/m2
03:34 43.6 °F 42.5 °F 29.87 in Calm     96% 0.00 in 0.0 W/m2
03:39 43.6 °F 42.5 °F 29.87 in Calm     96% 0.00 in 0.0 W/m2
03:44 43.6 °F 42.5 °F 29.87 in Calm     96% 0.00 in 0.0 W/m2
03:49 43.4 °F 42.3 °F 29.87 in Calm     96% 0.00 in 0.0 W/m2
03:54 43.2 °F 42.1 °F 29.87 in Calm     96% 0.00 in 0.0 W/m2
03:59 43.1 °F 42.0 °F 29.87 in Calm     96% 0.00 in 0.0 W/m2
04:04 42.9 °F 41.8 °F 29.86 in Calm     96% 0.00 in 0.0 W/m2
04:09 42.5 °F 41.2 °F 29.86 in Calm     95% 0.00 in 0.0 W/m2
04:14 42.4 °F 41.3 °F 29.86 in Calm     96% 0.00 in 0.0 W/m2
04:19 42.3 °F 41.2 °F 29.86 in Calm     96% 0.00 in 0.0 W/m2
04:24 42.3 °F 41.2 °F 29.86 in Calm     96% 0.00 in 0.0 W/m2
04:29 42.3 °F 41.2 °F 29.86 in Calm     96% 0.00 in 0.0 W/m2
04:34 42.3 °F 41.2 °F 29.86 in Calm     96% 0.00 in 0.0 W/m2
04:44 42.4 °F 41.3 °F 29.86 in Calm     96% 0.00 in 0.0 W/m2
04:49 42.5 °F 41.4 °F 29.86 in Calm     96% 0.00 in 0.0 W/m2
04:54 42.8 °F 42.0 °F 29.86 in Calm     97% 0.00 in 0.0 W/m2
04:59 43.0 °F 42.2 °F 29.86 in Calm     97% 0.00 in 0.0 W/m2
05:04 43.2 °F 42.4 °F 29.86 in Calm     97% 0.00 in 0.0 W/m2
05:19 43.4 °F 42.6 °F 29.86 in Calm     97% 0.00 in 0.0 W/m2
05:24 43.5 °F 42.7 °F 29.86 in Calm     97% 0.00 in 0.0 W/m2
05:29 43.7 °F 42.9 °F 29.86 in Calm     97% 0.00 in 0.0 W/m2
05:34 44.1 °F 43.3 °F 29.86 in NNW 3.5 mph 3.5 mph 97% 0.00 in 0.0 W/m2
05:35 44.1 °F 43.3 °F 29.86 in NNW 2.3 mph 2.3 mph 97% 0.00 in 0.0 W/m2
05:40 44.1 °F 43.3 °F 29.86 in Calm     97% 0.00 in 0.0 W/m2
05:41 44.1 °F 43.3 °F 29.86 in Calm     97% 0.00 in 0.0 W/m2
05:46 44.1 °F 43.3 °F 29.87 in Calm     97% 0.00 in 0.0 W/m2
05:51 44.1 °F 43.3 °F 29.87 in Calm     97% 0.00 in 0.0 W/m2
west seneca weather
Compliments of Weather Underground - 2 mb